createdAt,value
2016-02-04T11:06:57.692Z,63.95
2016-02-04T11:07:57.570Z,67.12
2016-02-04T11:08:57.447Z,68.89
2016-02-04T11:09:57.372Z,70.12
2016-02-04T11:10:57.328Z,70.88
2016-02-04T11:11:57.284Z,71.41
2016-02-04T11:12:57.225Z,71.41
2016-02-04T11:13:57.181Z,71.7
2016-02-04T11:14:57.153Z,71.89
2016-02-04T11:15:57.046Z,72.45
2016-02-04T11:16:56.987Z,71.98
2016-02-04T11:17:56.942Z,71.55
2016-02-04T11:18:56.916Z,71.55
2016-02-04T11:19:56.824Z,71.92
2016-02-04T11:20:56.796Z,71.89
2016-02-04T11:21:56.704Z,72.02
2016-02-04T11:22:56.676Z,71.8
2016-02-04T11:23:56.662Z,72.11
2016-02-04T11:24:56.571Z,72.3
2016-02-04T11:25:56.495Z,71.83
2016-02-04T11:26:56.577Z,71.73
2016-02-04T11:27:56.362Z,71.55
2016-02-04T11:28:56.317Z,71.8
2016-02-04T11:29:56.242Z,72.11
2016-02-04T11:30:56.198Z,71.73
2016-02-04T11:31:56.159Z,72.17
2016-02-04T11:32:56.084Z,72.08
2016-02-04T11:33:56.054Z,72.11
2016-02-04T11:34:55.948Z,72.17
2016-02-04T11:35:55.904Z,72.11
2016-02-04T11:36:55.845Z,72.17
2016-02-04T11:37:55.784Z,72.08
2016-02-04T11:38:55.741Z,72.11
2016-02-04T11:39:55.681Z,72.4
2016-02-04T11:40:55.637Z,72.21
2016-02-04T11:41:55.562Z,71.83
2016-02-04T11:42:55.533Z,71.92
2016-02-04T11:43:55.478Z,71.92
2016-02-04T11:44:55.402Z,72.02
2016-02-04T11:45:55.342Z,72.27
2016-02-04T11:46:55.283Z,72.4
2016-02-04T11:47:55.207Z,72.97
2016-02-04T11:48:55.178Z,72.59
2016-02-04T11:49:55.102Z,72.49
2016-02-04T11:50:55.058Z,72.3
2016-02-04T11:51:54.986Z,71.73
2016-02-04T11:52:54.926Z,71.73
2016-02-04T11:53:54.866Z,71.64
2016-02-04T11:54:54.806Z,72.3
2016-02-04T11:55:54.765Z,72.68
2016-02-04T11:56:54.720Z,72.59
2016-02-04T11:57:54.645Z,72.4
2016-02-04T11:58:54.585Z,72.59
2016-02-04T11:59:54.540Z,72.11
2016-02-04T12:00:54.637Z,72.3
2016-02-04T12:01:54.437Z,72.4
2016-02-04T12:02:54.424Z,72.21
2016-02-04T12:03:54.365Z,72.68
2016-02-04T12:04:54.243Z,72.49
2016-02-04T12:05:54.215Z,72.84
2016-02-04T12:06:54.140Z,73.41
2016-02-04T12:07:54.126Z,73.97
2016-02-04T12:08:54.035Z,73.6
2016-02-04T12:09:53.990Z,73.97
2016-02-04T12:10:53.915Z,73.72
2016-02-04T12:11:53.840Z,72.93
2016-02-04T12:12:53.781Z,73.44
2016-02-04T12:13:53.737Z,73.63
2016-02-04T12:14:53.692Z,72.97
2016-02-04T12:15:53.649Z,72.93
2016-02-04T12:16:53.698Z,73.79
2016-02-04T12:17:53.498Z,73.79
2016-02-04T12:18:53.502Z,73.79
2016-02-04T12:19:53.441Z,73.88
2016-02-04T12:20:53.319Z,73.79
2016-02-04T12:21:53.290Z,73.41
2016-02-04T12:22:53.199Z,73.22
2016-02-04T12:23:53.142Z,73.41
2016-02-04T12:24:53.098Z,73.97
2016-02-04T12:25:53.069Z,73.69
2016-02-04T12:26:52.978Z,73.97
2016-02-04T12:27:52.918Z,74.16
2016-02-04T12:28:52.858Z,74.64
2016-02-04T12:29:52.798Z,74.35
2016-02-04T12:30:52.771Z,74.26
2016-02-04T12:31:52.726Z,74.45
2016-02-04T12:32:52.635Z,74.16
2016-02-04T12:33:52.591Z,73.97
2016-02-04T12:34:52.516Z,73.97
2016-02-04T12:35:52.459Z,73.97
2016-02-04T12:36:52.430Z,74.35
2016-02-04T12:37:52.339Z,74.26
2016-02-04T12:38:52.326Z,74.16
2016-02-04T12:39:52.234Z,74.07
2016-02-04T12:40:52.163Z,73.88
2016-02-04T12:41:52.104Z,73.88
2016-02-04T12:42:52.043Z,73.79
2016-02-04T12:43:52.008Z,74.16
2016-02-04T12:44:51.933Z,73.97
2016-02-04T12:45:51.873Z,74.16
2016-02-04T12:46:51.876Z,73.97
2016-02-04T12:47:51.786Z,74.16
2016-02-04T12:48:51.694Z,73.6
2016-02-04T12:49:51.634Z,73.31
2016-02-04T12:50:51.606Z,73.31
2016-02-04T12:51:51.578Z,73.31
2016-02-04T12:52:51.534Z,73.41
2016-02-04T12:53:51.459Z,72.93
2016-02-04T12:54:51.352Z,73.12
2016-02-04T12:55:51.534Z,72.84
2016-02-04T12:56:51.240Z,72.84
2016-02-04T12:57:51.180Z,72.64
2016-02-04T12:58:51.136Z,72.84
2016-02-04T12:59:51.060Z,73.31
2016-02-04T13:00:51.110Z,73.6
2016-02-04T13:01:50.971Z,73.41
2016-02-04T13:02:50.912Z,73.6
2016-02-04T13:03:50.868Z,73.88
2016-02-04T13:04:50.792Z,74.16
2016-02-04T13:05:50.732Z,73.97
2016-02-04T13:06:50.673Z,74.16
2016-02-04T13:07:50.630Z,74.07
2016-02-04T13:08:50.601Z,73.97
2016-02-04T13:09:50.525Z,74.92
2016-02-04T13:10:50.466Z,74.73
2016-02-04T13:11:50.375Z,74.83
2016-02-04T13:12:50.330Z,74.92
2016-02-04T13:13:50.271Z,74.45
2016-02-04T13:14:50.211Z,74.07
2016-02-04T13:15:50.152Z,74.26
2016-02-04T13:16:50.093Z,73.97
2016-02-04T13:17:50.080Z,74.16
2016-02-04T13:18:49.972Z,74.16
2016-02-04T13:19:49.928Z,74.92
2016-02-04T13:20:49.934Z,74.64
2016-02-04T13:21:49.827Z,74.83
2016-02-04T13:22:49.785Z,74.73
2016-02-04T13:23:49.694Z,74.83
2016-02-04T13:24:49.634Z,75.02
2016-02-04T13:25:49.573Z,75.31
2016-02-04T13:26:49.514Z,75.02
2016-02-04T13:27:49.471Z,75.11
2016-02-04T13:28:49.411Z,75.78
2016-02-04T13:29:49.364Z,75.68
2016-02-04T13:30:49.305Z,76.44
2016-02-04T13:31:49.229Z,76.03
2016-02-04T13:32:49.169Z,75.87
2016-02-04T13:33:49.110Z,76.44
2016-02-04T13:34:49.050Z,76.92
2016-02-04T13:35:48.991Z,76.92
2016-02-04T13:36:48.931Z,76.82
2016-02-04T13:37:48.871Z,77.11
2016-02-04T13:38:48.905Z,77.2
2016-02-04T13:39:48.767Z,77.2
2016-02-04T13:40:48.773Z,77.11
2016-02-04T13:41:48.666Z,77.54
2016-02-04T13:42:48.607Z,77.77
2016-02-04T13:43:48.594Z,77.73
2016-02-04T13:44:48.534Z,77.29
2016-02-04T13:45:48.505Z,77.64
2016-02-04T13:46:48.352Z,78.15
2016-02-04T13:47:48.308Z,78.62
2016-02-04T13:48:48.281Z,78.15
2016-02-04T13:49:48.205Z,78.05
2016-02-04T13:50:48.129Z,78.24
2016-02-04T13:51:48.069Z,78.3
2016-02-04T13:52:48.060Z,78.62
2016-02-04T13:53:47.969Z,78.77
2016-02-04T13:54:47.909Z,78.62
2016-02-04T13:55:47.870Z,78.72
2016-02-04T13:56:47.857Z,78.91
2016-02-04T13:57:47.767Z,78.53
2016-02-04T13:58:47.675Z,78.53
2016-02-04T13:59:47.615Z,78.72
2016-02-04T14:00:47.587Z,79.19
2016-02-04T14:01:47.512Z,79
2016-02-04T14:02:47.452Z,78.91
2016-02-04T14:03:47.424Z,79.53
2016-02-04T14:04:47.396Z,79.82
2016-02-04T14:05:47.320Z,80
2016-02-04T14:06:47.307Z,79.91
2016-02-04T14:07:47.169Z,79.82
2016-02-04T14:08:47.172Z,79.82
2016-02-04T14:09:47.034Z,79.76
2016-02-04T14:10:47.459Z,80.19
2016-02-04T14:11:46.961Z,79.85
2016-02-04T14:12:46.874Z,79.63
2016-02-04T14:13:46.829Z,80.04
2016-02-04T14:14:46.770Z,79.66
2016-02-04T14:15:46.694Z,79.91
2016-02-04T14:16:46.697Z,79.82
2016-02-04T14:17:46.638Z,80
2016-02-04T14:18:46.531Z,79.82
2016-02-04T14:19:46.505Z,80
2016-02-04T14:20:46.446Z,79.72
2016-02-04T14:21:46.418Z,80
2016-02-04T14:22:46.311Z,80
2016-02-04T14:23:46.314Z,80.57
2016-02-04T14:24:46.286Z,80.48
2016-02-04T14:25:46.181Z,80.76
2016-02-04T14:26:46.121Z,80.76
2016-02-04T14:27:46.048Z,81.05
2016-02-04T14:28:45.957Z,81.24
2016-02-04T14:29:45.897Z,81.71
2016-02-04T14:30:45.837Z,81.24
2016-02-04T14:31:45.778Z,81.33
2016-02-04T14:32:45.734Z,81.43
2016-02-04T14:33:45.675Z,80.95
2016-02-04T14:34:45.630Z,81.62
2016-02-04T14:35:45.554Z,81.62
2016-02-04T14:36:45.510Z,81.33
2016-02-04T14:37:45.279Z,81.9
2016-02-04T14:38:45.438Z,81.9
2016-02-04T14:39:45.317Z,81.52
2016-02-04T14:40:45.350Z,81.52
2016-02-04T14:41:45.228Z,82.28
2016-02-04T14:42:45.215Z,82.56
2016-02-04T14:43:45.109Z,82.66
2016-02-04T14:44:45.038Z,82.75
2016-02-04T14:45:44.994Z,82.94
2016-02-04T14:46:44.934Z,83.23
2016-02-04T14:47:44.890Z,83.61
2016-02-04T14:48:44.798Z,83.32
2016-02-04T14:49:44.739Z,83.51
2016-02-04T14:50:44.695Z,82.75
2016-02-04T14:51:44.713Z,82.85
2016-02-04T14:52:44.653Z,83.32
2016-02-04T14:53:44.515Z,83.32
2016-02-04T14:54:44.462Z,82.85
2016-02-04T14:55:44.450Z,83.51
2016-02-04T14:56:44.843Z,82.94
2016-02-04T14:57:44.283Z,83.23
2016-02-04T14:58:44.270Z,82.94
2016-02-04T14:59:44.227Z,83.04
2016-02-04T15:00:44.166Z,83.13
2016-02-04T15:01:44.060Z,82.94
2016-02-04T15:02:43.999Z,83.04
2016-02-04T15:03:43.924Z,83.13
2016-02-04T15:04:43.897Z,83.04
2016-02-04T15:05:43.822Z,83.7
2016-02-04T15:06:43.808Z,83.42
2016-02-04T15:07:43.702Z,83.98
2016-02-04T15:08:43.657Z,83.61
2016-02-04T15:09:43.629Z,83.61
2016-02-04T15:10:43.568Z,83.51
2016-02-04T15:11:43.465Z,83.8
2016-02-04T15:12:43.435Z,83.89
2016-02-04T15:13:43.360Z,83.7
2016-02-04T15:14:43.286Z,83.89
2016-02-04T15:15:43.274Z,83.51
2016-02-04T15:16:43.246Z,83.61
2016-02-04T15:17:43.140Z,83.32
2016-02-04T15:18:43.064Z,83.42
2016-02-04T15:19:43.004Z,83.61
2016-02-04T15:20:42.948Z,83.8
2016-02-04T15:21:42.905Z,83.8
2016-02-04T15:22:42.844Z,83.98
2016-02-04T15:23:42.791Z,83.32
2016-02-04T15:24:42.777Z,83.42
2016-02-04T15:25:42.655Z,83.8
2016-02-04T15:26:42.627Z,83.7
2016-02-04T15:27:42.536Z,83.98
2016-02-04T15:28:42.507Z,83.7
2016-02-04T15:29:42.416Z,83.61
2016-02-04T15:30:42.371Z,83.98
2016-02-04T15:31:42.375Z,83.8
2016-02-04T15:32:42.252Z,84.08
2016-02-04T15:33:42.208Z,84.17
2016-02-04T15:34:42.195Z,83.7
2016-02-04T15:35:42.104Z,83.51
2016-02-04T15:36:42.030Z,83.32
2016-02-04T15:37:41.954Z,83.23
2016-02-04T15:38:41.910Z,83.51
2016-02-04T15:39:41.850Z,83.8
2016-02-04T15:40:41.790Z,83.32
2016-02-04T15:41:41.747Z,83.61
2016-02-04T15:42:41.719Z,83.04
2016-02-04T15:43:41.471Z,82.9
2016-02-04T15:44:41.553Z,82.94
2016-02-04T15:45:41.524Z,82.94
2016-02-04T15:46:41.433Z,83.23
2016-02-04T15:47:41.404Z,83.51
2016-02-04T15:48:41.361Z,83.75
2016-02-04T15:49:41.270Z,84.04
2016-02-04T15:50:41.225Z,83.85
2016-02-04T15:51:41.150Z,83.66
2016-02-04T15:52:41.185Z,83.98
2016-02-04T15:53:41.033Z,84.08
2016-02-04T15:54:41.020Z,83.7
2016-02-04T15:55:40.912Z,83.94
2016-02-04T15:56:40.916Z,84.13
2016-02-04T15:57:40.794Z,84.04
2016-02-04T15:58:40.765Z,84.08
2016-02-04T15:59:40.722Z,84.04
2016-02-04T16:00:40.631Z,84.23
2016-02-04T16:05:57.614Z,84.04
2016-02-04T16:06:57.538Z,84.32
2016-02-04T16:07:57.479Z,84.32
2016-02-04T16:08:57.419Z,84.51
2016-02-04T16:09:57.359Z,84.51
2016-02-04T16:10:57.299Z,84.8
2016-02-04T16:11:57.271Z,84.8
2016-02-04T16:12:57.179Z,84.89
2016-02-04T16:13:57.136Z,84.89
2016-02-04T16:14:57.076Z,85.17
2016-02-04T16:52:04.562Z,84.51
2016-02-04T16:53:04.535Z,84.42
2016-02-04T16:54:04.412Z,84.7
2016-02-04T16:55:04.383Z,84.8
2016-02-04T16:56:04.308Z,84.61
2016-02-04T16:57:04.249Z,84.61
2016-02-04T16:58:04.188Z,84.32
2016-02-04T16:59:04.129Z,84.51
2016-02-04T17:00:04.068Z,84.8
2016-02-04T17:01:04.024Z,84.8
2016-02-04T17:02:03.965Z,84.99
2016-02-04T17:03:03.890Z,84.42
2016-02-04T17:04:03.845Z,84.8
2016-02-04T17:05:03.770Z,84.99
2016-02-04T17:06:03.710Z,84.89
2016-02-04T17:07:03.665Z,84.99
2016-02-04T17:08:03.590Z,85.08
2016-02-04T17:09:03.529Z,85.74
2016-02-04T17:10:03.485Z,85.55
2016-02-04T17:11:03.399Z,85.17
2016-02-04T17:12:03.338Z,84.99
2016-02-04T17:13:03.295Z,85.27
2016-02-04T17:14:03.234Z,85.55
2016-02-04T17:15:03.176Z,85.74
2016-02-04T17:16:03.099Z,85.46
2016-02-04T17:17:03.055Z,85.55
2016-02-04T17:18:02.995Z,85.65
2016-02-04T17:19:02.967Z,86.03
2016-02-04T17:20:02.907Z,85.84
2016-02-04T17:21:02.836Z,86.12
2016-02-04T17:22:02.777Z,85.46
2016-02-04T17:23:02.700Z,85.65
2016-02-04T17:24:02.642Z,85.65
2016-02-04T17:25:02.582Z,85.46
2016-02-04T17:26:02.539Z,85.55
2016-02-04T17:27:02.463Z,85.46
2016-02-04T17:28:02.403Z,85.65
2016-02-04T17:29:02.330Z,85.55
2016-02-04T17:30:02.286Z,85.36
2016-02-04T17:31:02.257Z,85.36
2016-02-04T17:32:02.166Z,85.36
2016-02-04T17:33:02.122Z,85.65
2016-02-04T17:34:02.047Z,85.36
2016-02-04T17:35:02.002Z,85.55
2016-02-04T17:36:01.926Z,85.65
2016-02-04T17:37:01.882Z,85.36
2016-02-04T17:38:01.807Z,86.03
2016-02-04T17:39:01.747Z,85.74
2016-02-04T17:40:01.687Z,86.03
2016-02-04T17:41:01.627Z,85.65
2016-02-04T17:42:01.568Z,85.46
2016-02-04T17:43:01.507Z,85.84
2016-02-04T17:44:01.463Z,85.27
2016-02-04T17:45:01.388Z,85.65
2016-02-04T17:46:01.329Z,86.03
2016-02-04T17:47:01.285Z,85.46
2016-02-04T17:48:01.210Z,86.12
2016-02-04T17:49:01.166Z,86.22
2016-02-04T17:50:01.106Z,86.03
2016-02-04T17:51:01.030Z,85.93
2016-02-04T17:52:00.973Z,86.03
2016-02-04T17:53:00.913Z,86.69
2016-02-04T17:54:00.855Z,86.5
2016-02-04T17:55:00.795Z,85.84
2016-02-04T17:56:00.845Z,85.93
2016-02-04T17:57:00.675Z,85.74
2016-02-04T17:58:00.616Z,85.84
2016-02-04T17:59:00.560Z,85.84
2016-02-04T18:00:00.515Z,86.03
2016-02-04T18:01:00.474Z,86.5
2016-02-04T18:02:00.368Z,86.69
2016-02-04T18:03:00.323Z,85.65
2016-02-04T18:04:00.265Z,86.5
2016-02-04T18:05:00.220Z,86.5
2016-02-04T18:06:00.146Z,86.41
2016-02-04T18:07:00.085Z,86.31
2016-02-04T18:08:00.119Z,86.31
2016-02-04T18:08:59.981Z,86.31
2016-02-04T18:09:59.921Z,86.79
2016-02-04T18:10:59.846Z,86.79
2016-02-04T18:11:59.865Z,86.31
2016-02-04T18:12:59.743Z,86.98
2016-02-04T18:13:59.683Z,86.5
2016-02-04T18:14:59.670Z,86.22
2016-02-04T18:15:59.548Z,86.31
2016-02-04T18:16:59.519Z,86.6
2016-02-04T18:17:59.443Z,86.31
2016-02-04T18:18:59.384Z,86.41
2016-02-04T18:19:59.324Z,85.84
2016-02-04T18:20:59.252Z,85.84
2016-02-04T18:21:59.193Z,85.74
2016-02-04T18:22:59.149Z,86.22
2016-02-04T18:23:59.073Z,86.12
2016-02-04T18:24:59.044Z,86.6
2016-02-04T18:25:58.986Z,86.31
2016-02-04T18:26:58.925Z,86.12
2016-02-04T18:27:58.850Z,86.12
2016-02-04T18:28:58.775Z,86.22
2016-02-04T18:29:58.731Z,86.31
2016-02-04T18:30:58.673Z,85.93
2016-02-04T18:31:58.646Z,86.6
2016-02-04T18:32:58.542Z,86.31
2016-02-04T18:33:58.481Z,86.22
2016-02-04T18:34:58.422Z,86.79
2016-02-04T18:35:58.362Z,87.16
2016-02-04T18:36:58.333Z,86.79
2016-02-04T18:37:58.276Z,87.26
2016-02-04T18:38:58.201Z,87.45
2016-02-04T18:39:58.163Z,87.16
2016-02-04T18:41:01.116Z,87.16
2016-02-04T18:41:57.878Z,87.54
2016-02-04T18:42:57.994Z,87.83
2016-02-04T18:43:58.147Z,88.02
2016-02-04T18:44:57.934Z,87.54
2016-02-04T18:45:57.750Z,87.73
2016-02-04T18:46:57.720Z,87.64
2016-02-04T18:47:57.647Z,88.21
2016-02-04T18:48:57.571Z,88.21
2016-02-04T18:49:57.527Z,88.4
2016-02-04T18:50:57.442Z,88.4
2016-02-04T18:51:57.415Z,88.21
2016-02-04T18:52:57.330Z,88.96
2016-02-04T18:53:57.270Z,88.96
2016-02-04T18:54:57.226Z,88.96
2016-02-04T18:55:57.198Z,88.49
2016-02-04T18:56:57.106Z,88.78
2016-02-04T18:57:57.047Z,88.78
2016-02-04T18:58:57.003Z,88.78
2016-02-04T18:59:56.943Z,88.59
2016-02-04T19:00:56.868Z,89.06
2016-02-04T19:01:56.793Z,88.49
2016-02-04T19:02:56.718Z,89.15
2016-02-04T19:03:56.705Z,88.49
2016-02-04T19:04:56.598Z,88.59
2016-02-04T19:05:56.555Z,88.87
2016-02-04T19:06:56.496Z,89.06
2016-02-04T19:07:56.451Z,88.96
2016-02-04T19:08:56.407Z,89.34
2016-02-04T19:09:56.331Z,88.87
2016-02-04T19:10:56.257Z,88.96
2016-02-04T19:11:56.213Z,88.59
2016-02-04T19:12:56.153Z,89.06
2016-02-04T19:13:56.234Z,88.59
2016-02-04T19:14:56.065Z,88.59
2016-02-04T19:15:56.036Z,88.78
2016-02-04T19:16:55.914Z,88.78
2016-02-04T19:17:55.854Z,88.59
2016-02-04T19:18:55.795Z,89.25
2016-02-04T19:19:55.735Z,88.59
2016-02-04T19:20:55.675Z,88.59
2016-02-04T19:21:55.615Z,89.06
2016-02-04T19:22:55.559Z,89.34
2016-02-04T19:23:55.509Z,88.78
2016-02-04T19:24:55.434Z,88.68
2016-02-04T19:25:55.374Z,88.78
2016-02-04T19:26:55.293Z,89.15
2016-02-04T19:27:55.236Z,88.59
2016-02-04T19:28:55.180Z,88.96
2016-02-04T19:29:55.076Z,88.96
2016-02-04T19:30:55.098Z,88.87
2016-02-04T19:31:54.967Z,89.06
2016-02-04T19:32:54.886Z,88.96
2016-02-04T19:33:54.822Z,88.49
2016-02-04T19:34:54.742Z,88.78
2016-02-04T19:35:54.699Z,88.49
2016-02-04T19:36:54.651Z,89.06
2016-02-04T19:37:54.592Z,88.68
2016-02-04T19:38:54.530Z,88.68
2016-02-04T19:39:54.469Z,88.96
2016-02-04T19:40:54.407Z,89.06
2016-02-04T19:41:54.330Z,88.68
2016-02-04T19:42:54.272Z,88.87
2016-02-04T19:43:54.226Z,89.11
2016-02-04T19:44:54.165Z,88.78
2016-02-04T19:45:54.120Z,88.63
2016-02-04T19:46:54.029Z,89.01
2016-02-04T19:47:54.032Z,88.82
2016-02-04T19:48:53.955Z,88.92
2016-02-04T19:49:53.895Z,88.92
2016-02-04T19:50:53.788Z,89.01
2016-02-04T19:51:53.760Z,89.11
2016-02-04T19:52:53.701Z,88.63
2016-02-04T19:53:53.609Z,88.92
2016-02-04T19:54:53.565Z,89.11
2016-02-04T19:55:53.571Z,88.54
2016-02-04T19:56:53.513Z,89.11
2016-02-04T19:57:53.581Z,89.29
2016-02-04T19:58:53.475Z,89.11
2016-02-04T19:59:53.383Z,89.2
2016-02-04T20:00:53.276Z,88.92
2016-02-04T20:01:53.170Z,89.01
2016-02-04T20:02:53.098Z,89.2
2016-02-04T20:03:53.037Z,89.01
2016-02-04T20:04:52.977Z,89.11
2016-02-04T20:05:52.949Z,89.58
2016-02-04T20:06:52.873Z,89.48
2016-02-04T20:07:52.787Z,89.48
2016-02-04T20:08:52.757Z,89.48
2016-02-04T20:09:52.683Z,89.48
2016-02-04T20:10:52.642Z,89.77
2016-02-04T20:11:52.583Z,89.86
2016-02-04T20:12:52.491Z,90.05
2016-02-04T20:13:52.447Z,90.43
2016-02-04T20:14:52.434Z,89.67
2016-02-04T20:15:52.358Z,90.43
2016-02-04T20:16:52.315Z,89.96
2016-02-04T20:17:52.223Z,90.05
2016-02-04T20:18:52.150Z,90.34
2016-02-04T20:19:52.072Z,90.53
2016-02-04T20:20:52.017Z,90.48
2016-02-04T20:21:51.988Z,90.29
2016-02-04T20:22:51.947Z,90.53
2016-02-04T20:23:51.886Z,90.53
2016-02-04T20:24:51.802Z,90.34
2016-02-04T20:25:51.806Z,90.34
2016-02-04T20:26:51.747Z,90.05
2016-02-04T20:27:51.702Z,89.96
2016-02-04T20:28:51.612Z,90.43
2016-02-04T20:29:51.552Z,90.43
2016-02-04T20:30:51.444Z,90.24
2016-02-04T20:31:51.447Z,90.05
2016-02-04T20:32:51.325Z,89.96
2016-02-04T20:33:51.391Z,90.15
2016-02-04T20:34:51.299Z,90.43
2016-02-04T20:35:51.272Z,90.43
2016-02-04T20:36:51.133Z,90.62
2016-02-04T20:37:51.075Z,90.62
2016-02-04T20:38:51.061Z,90.81
2016-02-04T20:39:51.064Z,90.53
2016-02-04T20:40:50.864Z,90.24
2016-02-04T20:41:50.648Z,90.43
2016-02-04T20:42:50.744Z,90.34
2016-02-04T20:43:50.669Z,90.62
2016-02-04T20:44:50.608Z,90.72
2016-02-04T20:45:50.564Z,90.72
2016-02-04T20:46:50.552Z,90.62
2016-02-04T20:47:50.461Z,90.43
2016-02-04T20:48:50.386Z,90.91
2016-02-04T20:49:50.341Z,91.28
2016-02-04T20:50:50.298Z,90.81
2016-02-04T20:51:50.253Z,90.43
2016-02-04T20:52:50.163Z,90.62
2016-02-04T20:53:50.110Z,90.62
2016-02-04T20:54:50.019Z,90.43
2016-02-04T20:55:49.974Z,90.43
2016-02-04T20:56:49.929Z,90.62
2016-02-04T20:57:49.854Z,90.72
2016-02-04T20:58:49.842Z,90.81
2016-02-04T20:59:49.782Z,90.81
2016-02-04T21:00:49.737Z,90.72
2016-02-04T21:01:49.616Z,90.62
2016-02-04T21:02:49.603Z,90.81
2016-02-04T21:03:49.541Z,90.43
2016-02-04T21:04:49.454Z,90.81
2016-02-04T21:05:49.374Z,90.43
2016-02-04T21:06:49.330Z,90.34
2016-02-04T21:07:49.457Z,90.72
2016-02-04T21:08:49.289Z,90.72
2016-02-04T21:09:49.213Z,90.81
2016-02-04T21:10:49.090Z,90.43
2016-02-04T21:11:49.062Z,90.43
2016-02-04T21:12:48.988Z,90.43
2016-02-04T21:13:48.928Z,90.34
2016-02-04T21:14:48.870Z,90.34
2016-02-04T21:15:48.812Z,90.34
2016-02-04T21:16:48.769Z,89.77
2016-02-04T21:17:48.677Z,89.96
2016-02-04T21:18:48.648Z,90.05
2016-02-04T21:19:48.581Z,89.86
2016-02-04T21:20:48.533Z,89.58
2016-02-04T21:21:48.457Z,90.24
2016-02-04T21:22:48.381Z,90.05
2016-02-04T21:23:48.337Z,90.43
2016-02-04T21:24:48.278Z,90.05
2016-02-04T21:25:48.232Z,89.77
2016-02-04T21:26:48.187Z,90.43
2016-02-04T21:27:48.143Z,90.62
2016-02-04T21:28:48.068Z,90.62
2016-02-04T21:29:48.009Z,90.91
2016-02-04T21:30:47.948Z,90.43
2016-02-04T21:31:47.889Z,90.43
2016-02-04T21:32:47.877Z,90.43
2016-02-04T21:33:47.832Z,91.38
2016-02-04T21:34:47.804Z,91.09
2016-02-04T21:35:47.634Z,91.19
2016-02-04T21:36:47.590Z,90.72
2016-02-04T21:37:47.562Z,90.72
2016-02-04T21:38:47.549Z,90.72
2016-02-04T21:39:47.457Z,90.43
2016-02-04T21:40:47.337Z,90.81
2016-02-04T21:41:47.309Z,90.62
2016-02-04T21:42:47.218Z,90.53
2016-02-04T21:43:47.189Z,90.81
2016-02-04T21:44:47.144Z,90.43
2016-02-04T21:45:47.085Z,90.43
2016-02-04T21:46:47.026Z,90.34
2016-02-04T21:47:46.935Z,90.62
2016-02-04T21:48:46.890Z,90.72
2016-02-04T21:49:46.877Z,90.53
2016-02-04T21:50:46.833Z,90.34
2016-02-04T21:51:46.711Z,91
2016-02-04T21:52:46.699Z,90.72
2016-02-04T21:53:46.592Z,90.53
2016-02-04T21:54:46.551Z,90.43
2016-02-04T21:55:46.462Z,91.19
2016-02-04T21:56:46.419Z,91.38
2016-02-04T21:57:46.358Z,90.34
2016-02-04T21:58:46.314Z,90.53
2016-02-04T21:59:46.239Z,90.53
2016-02-04T22:00:46.340Z,90.34
2016-02-04T22:01:46.123Z,90.34
2016-02-04T22:02:46.079Z,91.28
2016-02-04T22:03:46.019Z,91.38
2016-02-04T22:04:45.944Z,90.72
2016-02-04T22:05:45.885Z,91.19
2016-02-04T22:06:45.857Z,91.28
2016-02-04T22:07:45.813Z,91.28
2016-02-04T22:08:45.721Z,91.76
2016-02-04T22:09:45.646Z,91.66
2016-02-04T22:10:45.603Z,91.38
2016-02-04T22:11:45.543Z,90.91
2016-02-04T22:12:45.503Z,91.28
2016-02-04T22:13:45.427Z,91.19
2016-02-04T22:14:45.523Z,91
2016-02-04T22:15:45.480Z,91.28
2016-02-04T22:16:45.264Z,90.81
2016-02-04T22:17:45.188Z,91.19
2016-02-04T22:18:45.144Z,91.38
2016-02-04T22:19:45.067Z,90.81
2016-02-04T22:20:45.025Z,91
2016-02-04T22:21:44.981Z,91.28
2016-02-04T22:22:44.920Z,90.81
2016-02-04T22:23:44.844Z,91.19
2016-02-04T22:24:45.024Z,90.72
2016-02-04T22:25:45.089Z,90.62
2016-02-04T22:26:44.905Z,90.72
2016-02-04T22:27:44.610Z,91.38
2016-02-04T22:28:44.722Z,91.19
2016-02-04T22:29:44.600Z,91.19
2016-02-04T22:30:44.290Z,91.28
2016-02-04T22:31:44.371Z,91.09
2016-02-04T22:32:44.328Z,91.19
2016-02-04T22:33:44.268Z,91
2016-02-04T22:34:44.224Z,91.19
2016-02-04T22:35:44.195Z,91.09
2016-02-04T22:36:44.104Z,91.09
2016-02-04T22:37:44.029Z,91.19
2016-02-04T22:38:43.986Z,91.28
2016-02-04T22:39:43.973Z,91.19
2016-02-04T22:40:43.901Z,91.09
2016-02-04T22:41:43.810Z,91.47
2016-02-04T22:42:43.782Z,91.28
2016-02-04T22:43:43.690Z,91.28
2016-02-04T22:44:43.631Z,91.57
2016-02-04T22:45:43.572Z,91.66
2016-02-04T22:46:43.528Z,91.85
2016-02-04T22:47:43.468Z,91.76
2016-02-04T22:48:43.408Z,91.38
2016-02-04T22:49:43.348Z,91.19
2016-02-04T22:50:43.305Z,91.28
2016-02-04T22:51:43.229Z,90.91
2016-02-04T22:52:43.168Z,91
2016-02-04T22:53:43.108Z,91.19
2016-02-04T22:54:43.064Z,91.28
2016-02-04T22:55:43.004Z,91.38
2016-02-04T22:56:42.944Z,91.28
2016-02-04T22:57:42.887Z,90.91
2016-02-04T22:58:42.827Z,91.19
2016-02-04T22:59:42.753Z,91.28
2016-02-04T23:00:42.693Z,91.19
2016-02-04T23:01:42.648Z,91.38
2016-02-04T23:02:42.588Z,91.28
2016-02-04T23:03:42.356Z,90.53
2016-02-04T23:04:42.484Z,91.19
2016-02-04T23:05:42.425Z,90.91
2016-02-04T23:06:42.349Z,90.81
2016-02-04T23:07:42.305Z,90.62
2016-02-04T23:08:42.245Z,90.81
2016-02-04T23:09:42.185Z,91.19
2016-02-04T23:10:42.141Z,91
2016-02-04T23:11:42.066Z,91
2016-02-04T23:12:42.038Z,91.19
2016-02-04T23:13:41.946Z,91
2016-02-04T23:14:41.918Z,91.38
2016-02-04T23:15:41.826Z,91.95
2016-02-04T23:16:41.783Z,91.66
2016-02-04T23:17:41.741Z,91.95
2016-02-04T23:18:41.666Z,91.38
2016-02-04T23:19:41.605Z,91.57
2016-02-04T23:20:41.577Z,91.47
2016-02-04T23:21:41.518Z,91.66
2016-02-04T23:22:41.426Z,91.85
2016-02-04T23:23:41.398Z,91.38
2016-02-04T23:24:41.618Z,91.85
2016-02-04T23:25:41.263Z,91.76
2016-02-04T23:26:41.203Z,91.57
2016-02-04T23:27:41.127Z,91.66
2016-02-04T23:28:41.083Z,91.47
2016-02-04T23:29:41.039Z,91.66
2016-02-04T23:30:40.965Z,91.76
2016-02-04T23:31:40.922Z,91.47
2016-02-04T23:32:40.845Z,91.57
2016-02-04T23:33:40.802Z,91.38
2016-02-04T23:34:40.742Z,91.47
2016-02-04T23:35:40.666Z,91.38
2016-02-04T23:36:40.638Z,91
2016-02-04T23:37:40.595Z,91
2016-02-04T23:38:40.535Z,90.91
2016-02-04T23:39:40.459Z,90.76
2016-02-04T23:40:40.400Z,90.67
2016-02-04T23:41:40.355Z,90.67
2016-02-04T23:42:40.391Z,91.33
2016-02-04T23:43:40.221Z,91.24
2016-02-04T23:44:40.176Z,91.33
2016-02-04T23:45:40.153Z,91.42
2016-02-04T23:46:40.078Z,91.24
2016-02-04T23:47:40.003Z,90.57
2016-02-04T23:48:39.943Z,90.48
2016-02-04T23:49:39.883Z,90.67
2016-02-04T23:50:39.823Z,90.57
2016-02-04T23:51:39.780Z,90.48
2016-02-04T23:52:39.704Z,90.86
2016-02-04T23:53:39.567Z,90.67
2016-02-04T23:54:39.615Z,90.76
2016-02-04T23:55:39.531Z,90.48
2016-02-04T23:56:39.470Z,90.67
2016-02-04T23:57:39.456Z,90.86
2016-02-04T23:58:39.381Z,90.86
2016-02-04T23:59:39.305Z,90.86
